Pollock, South Dakota
Current Conditions -  °F | °C
As of 10:15 AM on Thursday 30 Oct 2014 (Local Time) from K7L2 Reporting Station
Overcast Overcast  
Wind Chill: 24°   Ceiling: 1100
Heat Index: 34°   Visibility: 10mi
Dew Point: 32°   Wind: 14mph
Humidity: 93%   Direction: 10°N
Pressure: 30.31"   Gusts: NA
Location:  45.9°N, 100.29°W
Report Text: K7L2 301615Z AUTO 01012KT 10SM OVC011 01/00 A3031 RMK AO2 PWINO PNO
Loading
Personal Weather Stations






























Interactive Weather Map
Tropical Storm Tracking
New forecast layout! Learn more

10-Day Weather Forecast

Advertisements
Track Severe Weather on mobile